createdAt,value
2019-04-23T00:02:16.979Z,6.22
2019-04-23T00:05:29.096Z,6.67
2019-04-23T00:08:39.729Z,5.75
2019-04-23T00:11:41.596Z,6.05
2019-04-23T00:14:57.756Z,6.10
2019-04-23T00:17:50.255Z,6.37
2019-04-23T00:21:05.835Z,6.40
2019-04-23T00:24:46.568Z,6.40
2019-04-23T00:27:47.293Z,6.28
2019-04-23T00:30:48.303Z,6.62
2019-04-23T00:33:57.828Z,6.42
2019-04-23T00:37:11.799Z,6.40
2019-04-23T00:40:11.353Z,6.20
2019-04-23T00:43:35.932Z,6.78
2019-04-23T00:46:28.260Z,6.40
2019-04-23T00:49:41.505Z,6.28
2019-04-23T00:52:48.737Z,6.60
2019-04-23T00:56:03.367Z,6.97
2019-04-23T01:01:11.067Z,6.37
2019-04-23T01:03:56.399Z,6.10
2019-04-23T01:06:59.075Z,6.75
2019-04-23T01:10:27.710Z,6.33
2019-04-23T01:13:39.541Z,7.20
2019-04-23T01:16:37.366Z,6.50
2019-04-23T01:20:06.390Z,7.45
2019-04-23T01:22:48.735Z,7.25
2019-04-23T01:26:15.462Z,6.70
2019-04-23T01:29:34.087Z,7.33
2019-04-23T01:32:38.109Z,7.30
2019-04-23T01:35:57.345Z,7.40
2019-04-23T01:38:55.747Z,6.92
2019-04-23T01:42:08.481Z,7.75
2019-04-23T01:45:18.410Z,7.53
2019-04-23T01:48:12.854Z,6.95
2019-04-23T01:51:26.461Z,7.45
2019-04-23T01:54:37.121Z,7.00
2019-04-23T01:57:46.959Z,7.58
2019-04-23T02:04:03.576Z,7.58
2019-04-23T02:07:06.233Z,7.95
2019-04-23T02:10:22.183Z,8.15
2019-04-23T02:13:27.239Z,8.45
2019-04-23T02:16:34.048Z,7.80
2019-04-23T02:19:38.753Z,8.20
2019-04-23T02:23:18.337Z,8.25
2019-04-23T02:26:18.680Z,7.97
2019-04-23T02:29:36.363Z,8.60
2019-04-23T02:32:45.765Z,9.45
2019-04-23T02:42:20.906Z,9.10
2019-04-23T02:45:10.308Z,8.58
2019-04-23T02:57:44.224Z,8.60
2019-04-23T03:01:14.888Z,9.18
2019-04-23T03:10:18.333Z,9.00
2019-04-23T03:13:35.022Z,8.70
2019-04-23T03:16:55.014Z,8.65
2019-04-23T03:20:15.026Z,8.30
2019-04-23T03:23:42.212Z,8.43
2019-04-23T03:26:25.067Z,8.33
2019-04-23T03:32:45.827Z,8.58
2019-04-23T03:38:55.592Z,8.73
2019-04-23T03:45:31.607Z,8.28
2019-04-23T03:48:34.077Z,8.53
2019-04-23T03:54:44.905Z,8.33
2019-04-23T04:01:06.186Z,8.05
2019-04-23T04:10:31.602Z,8.80
2019-04-23T04:14:01.642Z,8.68
2019-04-23T04:16:47.045Z,8.68
2019-04-23T04:23:12.653Z,9.20
2019-04-23T04:26:06.998Z,8.28
2019-04-23T04:32:14.914Z,7.85
2019-04-23T04:35:39.071Z,7.83
2019-04-23T04:41:55.153Z,8.13
2019-04-23T04:45:07.537Z,8.00
2019-04-23T04:47:50.576Z,7.83
2019-04-23T04:54:17.694Z,8.10
2019-04-23T05:00:44.024Z,7.35
2019-04-23T05:03:29.596Z,7.33
2019-04-23T05:10:09.392Z,6.92
2019-04-23T05:13:26.345Z,7.20
2019-04-23T05:22:31.218Z,7.60
2019-04-23T05:25:31.380Z,7.30
2019-04-23T05:31:53.337Z,8.83
2019-04-23T05:35:09.985Z,7.70
2019-04-23T05:38:29.243Z,7.78
2019-04-23T05:41:30.483Z,7.80
2019-04-23T05:44:41.704Z,7.47
2019-04-23T05:47:45.469Z,8.15
2019-04-23T05:54:12.749Z,10.50
2019-04-23T05:57:00.289Z,8.35
2019-04-23T06:00:19.461Z,7.50
2019-04-23T06:03:26.449Z,7.95
2019-04-23T06:06:44.570Z,7.95
2019-04-23T06:09:37.836Z,7.15
2019-04-23T06:12:43.746Z,6.60
2019-04-23T06:15:55.864Z,7.12
2019-04-23T06:19:01.172Z,7.53
2019-04-23T06:25:24.851Z,7.17
2019-04-23T06:28:21.208Z,7.47
2019-04-23T06:31:34.217Z,7.62
2019-04-23T06:34:36.403Z,6.83
2019-04-23T06:38:17.541Z,6.75
2019-04-23T06:40:53.947Z,6.83
2019-04-23T06:44:25.421Z,6.35
2019-04-23T06:47:29.265Z,7.03
2019-04-23T06:50:46.188Z,6.72
2019-04-23T06:53:43.141Z,6.25
2019-04-23T06:57:03.207Z,5.83
2019-04-23T07:00:02.689Z,6.30
2019-04-23T07:03:16.170Z,5.40
2019-04-23T07:06:23.767Z,5.60
2019-04-23T07:09:18.609Z,5.58
2019-04-23T07:12:36.410Z,6.03
2019-04-23T07:15:46.518Z,6.00
2019-04-23T07:18:46.466Z,5.47
2019-04-23T07:21:58.694Z,5.35
2019-04-23T07:25:08.409Z,5.90
2019-04-23T07:28:19.443Z,5.35
2019-04-23T07:31:42.009Z,5.37
2019-04-23T07:34:30.334Z,5.40
2019-04-23T07:37:51.782Z,5.40
2019-04-23T07:40:50.108Z,5.42
2019-04-23T07:44:10.497Z,5.47
2019-04-23T07:47:36.394Z,5.33
2019-04-23T07:53:53.634Z,5.08
2019-04-23T08:00:27.630Z,5.17
2019-04-23T08:06:19.574Z,4.87
2019-04-23T08:09:37.331Z,4.90
2019-04-23T08:12:42.579Z,5.20
2019-04-23T08:15:46.629Z,5.03
2019-04-23T08:22:06.633Z,4.85
2019-04-23T08:25:20.244Z,4.53
2019-04-23T08:28:34.082Z,4.90
2019-04-23T08:31:38.766Z,4.08
2019-04-23T08:41:06.070Z,4.28
2019-04-23T08:44:09.235Z,4.87
2019-04-23T08:47:17.143Z,4.62
2019-04-23T08:50:21.779Z,4.70
2019-04-23T08:56:48.560Z,4.80
2019-04-23T09:03:03.050Z,4.20
2019-04-23T09:06:05.321Z,5.08
2019-04-23T09:09:14.547Z,3.98
2019-04-23T09:15:33.067Z,4.37
2019-04-23T09:18:35.233Z,4.50
2019-04-23T09:21:39.943Z,4.60
2019-04-23T09:24:57.443Z,4.20
2019-04-23T09:27:59.381Z,4.17
2019-04-23T09:34:43.281Z,4.50
2019-04-23T09:37:59.604Z,4.25
2019-04-23T09:41:27.662Z,4.08
2019-04-23T09:44:58.199Z,4.17
2019-04-23T09:48:06.740Z,4.25
2019-04-23T09:51:18.130Z,4.03
2019-04-23T09:54:30.969Z,4.33
2019-04-23T09:57:24.307Z,3.83
2019-04-23T10:00:43.680Z,3.83
2019-04-23T10:03:39.135Z,4.10
2019-04-23T10:06:36.486Z,4.08
2019-04-23T10:09:40.612Z,3.70
2019-04-23T10:12:48.206Z,4.15
2019-04-23T10:15:55.432Z,3.60
2019-04-23T10:19:01.257Z,3.80
2019-04-23T10:22:09.160Z,4.03
2019-04-23T10:25:15.317Z,3.77
2019-04-23T10:28:26.549Z,3.65
2019-04-23T10:31:35.636Z,3.80
2019-04-23T10:34:53.019Z,3.77
2019-04-23T10:37:56.571Z,3.83
2019-04-23T10:41:00.355Z,3.62
2019-04-23T10:44:14.993Z,3.62
2019-04-23T10:51:29.088Z,3.30
2019-04-23T10:57:31.199Z,3.70
2019-04-23T11:00:53.491Z,3.50
2019-04-23T11:04:33.537Z,3.67
2019-04-23T11:07:26.935Z,3.60
2019-04-23T11:10:15.852Z,3.55
2019-04-23T11:13:31.868Z,3.25
2019-04-23T11:22:51.713Z,3.67
2019-04-23T11:26:09.716Z,3.52
2019-04-23T11:29:21.021Z,4.08
2019-04-23T11:32:40.639Z,4.15
2019-04-23T11:44:58.202Z,4.17
2019-04-23T11:48:24.062Z,3.65
2019-04-23T11:54:17.228Z,3.72
2019-04-23T11:57:29.848Z,3.90
2019-04-23T12:00:44.957Z,3.62
2019-04-23T12:04:05.436Z,3.80
2019-04-23T12:07:17.565Z,3.67
2019-04-23T12:10:43.711Z,4.17
2019-04-23T12:13:44.930Z,4.25
2019-04-23T12:17:15.344Z,3.98
2019-04-23T12:20:12.948Z,3.80
2019-04-23T12:23:38.221Z,3.58
2019-04-23T12:32:46.471Z,3.60
2019-04-23T12:35:57.107Z,3.80
2019-04-23T12:39:15.443Z,3.95
2019-04-23T12:42:38.432Z,4.25
2019-04-23T12:48:41.322Z,4.20
2019-04-23T12:51:40.248Z,4.17
2019-04-23T12:58:11.035Z,4.33
2019-04-23T13:00:57.835Z,4.20
2019-04-23T13:04:16.026Z,4.10
2019-04-23T13:07:29.364Z,4.28
2019-04-23T13:10:30.266Z,4.25
2019-04-23T13:13:37.757Z,3.77
2019-04-23T13:16:58.956Z,4.40
2019-04-23T13:19:53.658Z,4.28
2019-04-23T13:23:01.609Z,4.45
2019-04-23T13:26:10.152Z,4.20
2019-04-23T13:29:41.091Z,4.30
2019-04-23T13:32:36.048Z,4.42
2019-04-23T13:35:55.241Z,4.42
2019-04-23T13:38:52.658Z,4.40
2019-04-23T13:42:10.005Z,5.12
2019-04-23T13:45:20.547Z,4.62
2019-04-23T13:48:10.932Z,5.05
2019-04-23T13:54:59.726Z,4.85
2019-04-23T13:58:02.646Z,5.10
2019-04-23T14:00:58.069Z,5.03
2019-04-23T14:04:14.260Z,5.20
2019-04-23T14:07:10.278Z,5.75
2019-04-23T14:19:34.299Z,5.90
2019-04-23T14:23:08.262Z,5.87
2019-04-23T14:26:10.898Z,6.08
2019-04-23T14:29:02.057Z,5.40
2019-04-23T14:32:43.271Z,5.53
2019-04-23T14:35:25.435Z,5.55
2019-04-23T14:38:33.852Z,5.70
2019-04-23T14:41:37.745Z,6.00
2019-04-23T14:44:49.690Z,5.60
2019-04-23T14:48:05.734Z,5.40
2019-04-23T14:51:14.898Z,4.87
2019-04-23T14:54:20.659Z,5.95
2019-04-23T14:57:34.114Z,5.60
2019-04-23T15:00:43.392Z,5.55
2019-04-23T15:07:01.053Z,5.30
2019-04-23T15:10:12.940Z,5.40
2019-04-23T15:13:10.387Z,5.60
2019-04-23T15:16:22.338Z,5.20
2019-04-23T15:27:15.902Z,5.25
2019-04-23T15:28:34.104Z,5.10
2019-04-23T15:32:00.832Z,5.55
2019-04-23T15:35:26.824Z,4.83
2019-04-23T15:41:31.820Z,5.30
2019-04-23T15:44:32.108Z,4.87
2019-04-23T15:47:48.078Z,5.47
2019-04-23T15:51:09.720Z,5.30
2019-04-23T15:54:04.836Z,5.15
2019-04-23T15:57:12.392Z,4.95
2019-04-23T16:00:13.295Z,5.53
2019-04-23T16:02:55.702Z,5.30
2019-04-23T16:06:02.582Z,5.25
2019-04-23T16:09:42.186Z,5.40
2019-04-23T16:12:54.489Z,5.58
2019-04-23T16:15:58.002Z,5.15
2019-04-23T16:19:52.840Z,7.10
2019-04-23T16:22:36.739Z,5.45
2019-04-23T16:25:49.814Z,6.10
2019-04-23T16:29:18.618Z,5.67
2019-04-23T16:32:08.290Z,5.60
2019-04-23T16:35:19.376Z,5.28
2019-04-23T16:41:27.832Z,4.85
2019-04-23T16:44:38.444Z,5.10
2019-04-23T16:47:50.221Z,5.85
2019-04-23T16:53:57.121Z,5.17
2019-04-23T17:00:26.050Z,5.20
2019-04-23T17:03:27.398Z,5.97
2019-04-23T17:09:48.100Z,6.60
2019-04-23T17:12:52.812Z,6.67
2019-04-23T17:15:58.560Z,7.25
2019-04-23T17:19:01.778Z,7.22
2019-04-23T17:22:13.156Z,7.12
2019-04-23T17:25:20.529Z,8.00
2019-04-23T17:35:05.135Z,8.50
2019-04-23T17:38:09.050Z,8.88
2019-04-23T17:41:29.317Z,8.63
2019-04-23T17:44:33.068Z,8.50
2019-04-23T17:47:41.234Z,8.75
2019-04-23T17:51:00.568Z,7.90
2019-04-23T17:54:04.722Z,9.10
2019-04-23T18:03:27.149Z,8.03
2019-04-23T18:11:12.891Z,8.55
2019-04-23T18:14:11.446Z,8.30
2019-04-23T18:17:30.391Z,8.63
2019-04-23T18:20:54.767Z,9.13
2019-04-23T18:24:16.738Z,8.83
2019-04-23T18:27:20.825Z,8.10
2019-04-23T18:30:50.044Z,7.72
2019-04-23T18:34:01.867Z,8.43
2019-04-23T18:37:02.721Z,8.05
2019-04-23T18:39:58.938Z,8.13
2019-04-23T18:43:20.633Z,8.30
2019-04-23T18:46:22.924Z,7.78
2019-04-23T18:49:34.638Z,7.80
2019-04-23T18:52:40.853Z,8.10
2019-04-23T18:55:55.853Z,8.33
2019-04-23T18:58:54.453Z,7.95
2019-04-23T19:02:29.621Z,8.18
2019-04-23T19:05:43.472Z,8.83
2019-04-23T19:08:58.991Z,8.70
2019-04-23T19:12:19.639Z,9.73
2019-04-23T19:15:30.143Z,8.48
2019-04-23T19:18:25.873Z,8.83
2019-04-23T19:21:57.274Z,8.68
2019-04-23T19:24:48.552Z,8.63
2019-04-23T19:31:11.687Z,8.60
2019-04-23T19:37:35.210Z,8.25
2019-04-23T19:40:37.973Z,8.20
2019-04-23T19:43:59.684Z,8.55
2019-04-23T19:47:02.098Z,8.25
2019-04-23T19:50:03.857Z,8.03
2019-04-23T19:56:31.948Z,8.20
2019-04-23T19:59:42.822Z,8.88
2019-04-23T20:03:07.735Z,8.25
2019-04-23T20:05:53.882Z,8.00
2019-04-23T20:12:00.413Z,8.80
2019-04-23T20:15:00.313Z,8.40
2019-04-23T20:18:24.825Z,7.83
2019-04-23T20:21:32.586Z,8.68
2019-04-23T20:24:49.430Z,8.63
2019-04-23T20:28:05.724Z,8.38
2019-04-23T20:37:12.510Z,8.05
2019-04-23T20:40:30.388Z,8.28
2019-04-23T20:43:47.196Z,8.03
2019-04-23T20:46:42.701Z,7.87
2019-04-23T20:49:47.879Z,8.58
2019-04-23T20:52:52.936Z,8.40
2019-04-23T20:56:07.255Z,8.53
2019-04-23T20:59:12.304Z,8.68
2019-04-23T21:02:53.825Z,9.60
2019-04-23T21:05:26.390Z,8.98
2019-04-23T21:09:07.422Z,9.18
2019-04-23T21:11:55.101Z,9.08
2019-04-23T21:21:18.169Z,8.95
2019-04-23T21:24:29.468Z,8.60
2019-04-23T21:28:00.613Z,7.75
2019-04-23T21:34:05.095Z,8.05
2019-04-23T21:37:06.277Z,8.08
2019-04-23T21:43:57.549Z,7.90
2019-04-23T21:52:58.231Z,7.90
2019-04-23T22:02:27.646Z,7.20
2019-04-23T22:08:44.112Z,7.37
2019-04-23T22:12:05.191Z,6.87
2019-04-23T22:14:50.403Z,7.22
2019-04-23T22:17:59.678Z,7.40
2019-04-23T22:21:15.647Z,7.10
2019-04-23T22:24:12.376Z,6.72
2019-04-23T22:27:27.618Z,6.90
2019-04-23T22:30:54.729Z,7.22
2019-04-23T22:37:04.190Z,6.45
2019-04-23T22:39:58.931Z,6.35
2019-04-23T22:46:18.266Z,6.20
2019-04-23T22:59:18.595Z,5.72
2019-04-23T23:02:29.064Z,5.53
2019-04-23T23:05:59.051Z,5.75
2019-04-23T23:08:59.887Z,5.60
2019-04-23T23:12:07.639Z,5.60
2019-04-23T23:15:08.149Z,5.72
2019-04-23T23:21:19.923Z,5.25
2019-04-23T23:24:27.074Z,5.00
2019-04-23T23:27:46.197Z,5.00
2019-04-23T23:33:54.877Z,4.78
2019-04-23T23:40:15.215Z,5.05
2019-04-23T23:46:30.639Z,4.53
2019-04-23T23:49:36.117Z,5.15
2019-04-23T23:52:48.793Z,4.75
2019-04-23T23:55:50.850Z,4.08
2019-04-23T23:58:57.028Z,4.40
